Time;durP1;ratioP1;P1;durP2;ratioP2;P2;SDS_P1;SDS_P2;PMS_P1;PMS_P2;Temp;Humidity;BMP_temperature;BMP_pressure;BME280_temperature;BME280_humidity;BME280_pressure;Samples;Min_cycle;Max_cycle;Signal;HPM_P1;HPM_P2
2021/05/01 00:02:18;;;;;;;26.73;19.13;;;6.60;99.90;;;;;;5071749;28;20622;-65
2021/05/01 00:04:44;;;;;;;29.77;19.13;;;6.50;99.90;;;;;;5070515;28;20256;-66
2021/05/01 00:07:11;;;;;;;27.43;18.80;;;6.50;99.90;;;;;;5073070;28;20611;-65
2021/05/01 00:09:37;;;;;;;28.57;19.40;;;6.20;99.90;;;;;;5068686;28;20225;-65
2021/05/01 00:12:04;;;;;;;30.43;20.93;;;6.20;99.90;;;;;;5066535;28;20226;-66
2021/05/01 00:14:31;;;;;;;29.33;20.37;;;6.20;99.90;;;;;;5067754;28;20213;-65
2021/05/01 00:16:57;;;;;;;30.80;20.53;;;6.30;99.90;;;;;;5063567;28;20198;-66
2021/05/01 00:19:23;;;;;;;28.93;20.97;;;6.20;99.90;;;;;;5072405;28;20208;-65
2021/05/01 00:21:50;;;;;;;30.40;20.83;;;6.10;99.90;;;;;;5072954;28;20286;-65
2021/05/01 00:24:17;;;;;;;29.97;20.03;;;6.00;99.90;;;;;;5073424;28;20202;-65
2021/05/01 00:26:43;;;;;;;28.00;19.63;;;6.10;99.90;;;;;;5073307;28;20211;-65
2021/05/01 00:29:09;;;;;;;30.33;20.60;;;6.10;99.90;;;;;;5055008;28;20207;-65
2021/05/01 00:31:36;;;;;;;32.57;21.83;;;6.10;99.90;;;;;;5063221;28;20749;-66
2021/05/01 00:34:02;;;;;;;29.70;20.70;;;6.00;99.90;;;;;;5058840;28;20199;-65
2021/05/01 00:36:29;;;;;;;32.20;20.27;;;6.00;99.90;;;;;;5073542;28;20678;-65
2021/05/01 00:38:55;;;;;;;31.10;21.37;;;6.10;99.90;;;;;;5072188;28;20209;-65
2021/05/01 00:41:23;;;;;;;26.07;17.20;;;6.20;99.90;;;;;;5073041;28;20218;-65
2021/05/01 00:43:49;;;;;;;24.00;15.87;;;6.10;99.90;;;;;;5072732;28;20207;-66
2021/05/01 00:46:16;;;;;;;26.63;18.13;;;5.60;99.90;;;;;;5072890;28;20202;-65
2021/05/01 00:48:42;;;;;;;26.30;17.83;;;5.40;99.90;;;;;;5067557;28;20205;-66
2021/05/01 00:51:08;;;;;;;24.43;16.03;;;5.30;99.90;;;;;;5067681;28;20217;-65
2021/05/01 00:53:35;;;;;;;27.30;17.20;;;5.10;99.90;;;;;;5072443;28;20198;-65
2021/05/01 00:56:02;;;;;;;24.50;17.00;;;5.00;99.90;;;;;;5072460;28;21039;-65
2021/05/01 00:58:30;;;;;;;27.97;18.13;;;5.00;99.90;;;;;;5072162;28;20206;-65
2021/05/01 01:03:47;;;;;;;26.43;17.67;;;5.30;99.90;;;;;;5053748;28;20210;-66
2021/05/01 01:06:14;;;;;;;29.13;18.03;;;5.40;99.90;;;;;;5072533;28;20199;-65
2021/05/01 01:08:41;;;;;;;29.47;19.27;;;5.50;99.90;;;;;;5071465;28;20202;-66
2021/05/01 01:11:07;;;;;;;32.73;20.73;;;5.60;99.90;;;;;;5072184;28;20194;-66
2021/05/01 01:13:35;;;;;;;30.23;20.57;;;5.70;99.90;;;;;;5072187;28;20679;-66
2021/05/01 01:16:02;;;;;;;31.33;20.53;;;5.70;99.90;;;;;;5069292;28;20203;-66
2021/05/01 01:18:29;;;;;;;33.23;21.77;;;5.90;99.90;;;;;;5055907;28;20202;-65
2021/05/01 01:20:58;;;;;;;26.93;16.70;;;5.90;99.90;;;;;;5062686;28;20245;-65
2021/05/01 01:23:25;;;;;;;27.20;15.13;;;5.60;99.90;;;;;;5072045;28;20310;-65
2021/05/01 01:25:51;;;;;;;29.00;19.97;;;4.90;99.90;;;;;;5071242;28;20219;-65
2021/05/01 01:28:18;;;;;;;30.17;19.33;;;5.10;99.90;;;;;;5071738;28;20206;-65
2021/05/01 01:30:44;;;;;;;30.20;19.90;;;5.20;99.90;;;;;;5071165;28;20671;-65
2021/05/01 01:33:12;;;;;;;31.90;20.67;;;5.40;99.90;;;;;;5071987;28;20198;-65
2021/05/01 01:35:39;;;;;;;31.63;20.63;;;5.60;99.90;;;;;;5071485;28;20214;-65
2021/05/01 01:38:07;;;;;;;31.33;21.50;;;5.60;99.90;;;;;;5064128;28;20195;-65
2021/05/01 01:40:36;;;;;;;30.57;20.17;;;5.80;99.90;;;;;;5065286;28;20206;-65
2021/05/01 01:43:03;;;;;;;29.97;19.43;;;5.70;99.90;;;;;;5058155;28;20615;-65
2021/05/01 01:45:30;;;;;;;30.23;20.13;;;5.70;99.90;;;;;;5071312;28;20381;-65
2021/05/01 01:47:56;;;;;;;30.63;20.57;;;5.70;99.90;;;;;;5070380;28;20203;-66
2021/05/01 01:50:24;;;;;;;30.13;19.63;;;5.60;99.90;;;;;;5066502;28;20202;-65
2021/05/01 01:52:50;;;;;;;28.93;19.50;;;5.70;99.90;;;;;;5068200;28;20210;-65
2021/05/01 01:55:18;;;;;;;32.63;21.27;;;5.80;99.90;;;;;;5071185;28;20202;-65
2021/05/01 01:57:46;;;;;;;32.37;20.27;;;5.90;99.90;;;;;;5070445;28;20206;-65
2021/05/01 02:00:14;;;;;;;29.63;20.20;;;6.00;99.90;;;;;;5071463;28;20199;-65
2021/05/01 02:02:41;;;;;;;31.40;20.83;;;6.00;99.90;;;;;;5070878;28;20713;-65
2021/05/01 02:05:09;;;;;;;34.20;20.60;;;6.00;99.90;;;;;;5065949;28;20201;-65
2021/05/01 02:07:35;;;;;;;27.57;18.83;;;6.00;99.90;;;;;;5065511;28;20548;-65
2021/05/01 02:10:01;;;;;;;27.80;19.30;;;6.00;99.90;;;;;;5066089;28;20206;-65
2021/05/01 02:12:28;;;;;;;26.87;18.60;;;5.80;99.90;;;;;;5069635;28;20205;-65
2021/05/01 02:14:55;;;;;;;29.60;19.37;;;5.80;99.90;;;;;;5071248;28;20206;-65
2021/05/01 02:17:21;;;;;;;31.10;20.77;;;5.80;99.90;;;;;;5069133;28;20198;-65
2021/05/01 02:19:48;;;;;;;28.77;19.50;;;5.80;99.90;;;;;;5071323;28;20194;-65
2021/05/01 02:22:14;;;;;;;28.83;18.73;;;5.70;99.90;;;;;;5068099;28;20229;-65
2021/05/01 02:24:40;;;;;;;29.30;19.13;;;5.60;99.90;;;;;;5057607;28;20210;-65
2021/05/01 02:27:06;;;;;;;27.37;17.57;;;5.60;99.90;;;;;;5093551;22;20230;-71
2021/05/01 02:29:33;;;;;;;25.53;16.33;;;5.60;99.90;;;;;;5070628;28;20667;-71
2021/05/01 02:32:00;;;;;;;27.03;17.90;;;5.60;99.90;;;;;;5070288;28;20198;-70
2021/05/01 02:34:26;;;;;;;30.30;19.83;;;5.70;99.90;;;;;;5069751;28;20203;-70
2021/05/01 02:36:53;;;;;;;30.37;19.60;;;5.60;99.90;;;;;;5070472;28;20224;-71
2021/05/01 02:39:20;;;;;;;28.17;18.10;;;5.60;99.90;;;;;;5070109;28;20198;-70
2021/05/01 02:41:46;;;;;;;30.20;18.00;;;5.60;99.90;;;;;;5067518;28;20220;-70
2021/05/01 02:44:12;;;;;;;27.70;18.53;;;5.70;99.90;;;;;;5070766;28;20202;-70
2021/05/01 02:46:38;;;;;;;27.93;18.47;;;5.80;99.90;;;;;;5066214;28;20214;-70
2021/05/01 02:49:06;;;;;;;26.67;18.20;;;5.80;99.90;;;;;;5068294;28;20543;-70
2021/05/01 02:51:32;;;;;;;26.53;17.93;;;5.70;99.90;;;;;;5070318;28;20251;-70
2021/05/01 02:53:58;;;;;;;25.93;16.67;;;5.60;99.90;;;;;;5069903;28;20213;-70
2021/05/01 02:56:24;;;;;;;25.83;17.20;;;5.50;99.90;;;;;;5070883;28;20203;-70
2021/05/01 02:58:51;;;;;;;28.27;18.07;;;5.50;99.90;;;;;;5068192;28;20246;-70
2021/05/01 03:01:17;;;;;;;27.80;18.30;;;5.60;99.90;;;;;;5069964;28;20226;-70
2021/05/01 03:03:46;;;;;;;25.47;16.93;;;5.60;99.90;;;;;;5069150;28;20198;-70
2021/05/01 03:06:15;;;;;;;28.83;18.80;;;5.60;99.90;;;;;;5069899;28;20644;-70
2021/05/01 03:08:42;;;;;;;29.37;18.73;;;5.60;99.90;;;;;;5067948;28;20209;-70
2021/05/01 03:11:08;;;;;;;27.67;18.73;;;5.70;99.90;;;;;;5070264;28;20224;-70
2021/05/01 03:13:35;;;;;;;25.63;17.20;;;5.80;99.90;;;;;;5070859;28;20683;-70
2021/05/01 03:16:01;;;;;;;27.53;17.90;;;5.70;99.90;;;;;;5070439;28;20203;-71
2021/05/01 03:18:27;;;;;;;28.10;18.87;;;5.70;99.90;;;;;;5069699;28;20211;-71
2021/05/01 03:20:54;;;;;;;27.70;18.40;;;5.60;99.90;;;;;;5069597;28;20226;-70
2021/05/01 03:23:21;;;;;;;29.30;20.07;;;5.40;99.90;;;;;;5069934;28;20198;-71
2021/05/01 03:25:48;;;;;;;28.13;19.13;;;5.50;99.90;;;;;;5069931;28;20202;-70
2021/05/01 03:28:14;;;;;;;28.07;18.07;;;5.50;99.90;;;;;;5067374;28;20267;-70
2021/05/01 03:30:40;;;;;;;27.70;17.67;;;5.40;99.90;;;;;;5069373;28;20198;-70
2021/05/01 03:33:07;;;;;;;29.10;18.87;;;5.30;99.90;;;;;;5069128;28;20210;-70
2021/05/01 03:35:33;;;;;;;28.10;18.73;;;5.30;99.90;;;;;;5069788;28;20237;-71
2021/05/01 03:37:59;;;;;;;27.53;18.57;;;5.20;99.90;;;;;;5069301;28;20207;-70
2021/05/01 03:40:27;;;;;;;29.27;18.30;;;5.20;99.90;;;;;;5069697;28;20210;-70
2021/05/01 03:42:53;;;;;;;27.97;18.37;;;5.20;99.90;;;;;;5070205;28;20582;-71
2021/05/01 03:45:19;;;;;;;26.73;17.87;;;5.20;99.90;;;;;;5070039;28;20202;-71
2021/05/01 03:47:46;;;;;;;25.50;16.50;;;5.20;99.90;;;;;;5069172;28;20574;-71
2021/05/01 03:50:13;;;;;;;26.70;17.97;;;5.20;99.90;;;;;;5069689;28;20340;-70
2021/05/01 03:52:39;;;;;;;27.40;17.83;;;4.90;99.90;;;;;;5069744;28;20210;-70
2021/05/01 03:55:07;;;;;;;27.47;17.27;;;4.90;99.90;;;;;;5071508;28;20202;-70
2021/05/01 03:57:34;;;;;;;26.67;16.53;;;4.90;99.90;;;;;;5072612;28;20731;-71
2021/05/01 04:00:01;;;;;;;23.63;15.80;;;4.90;99.90;;;;;;5072789;28;20662;-70
2021/05/01 04:02:27;;;;;;;24.10;15.13;;;5.00;99.90;;;;;;5071248;28;20242;-71
2021/05/01 04:04:54;;;;;;;25.90;16.13;;;5.00;99.90;;;;;;5073256;28;20210;-70
2021/05/01 04:07:20;;;;;;;24.23;15.87;;;5.00;99.90;;;;;;5072952;28;20274;-70
2021/05/01 04:09:46;;;;;;;26.10;16.73;;;5.10;99.90;;;;;;5072985;28;20210;-70
2021/05/01 04:12:13;;;;;;;26.93;17.40;;;5.20;99.90;;;;;;5073461;28;20206;-70
2021/05/01 04:14:40;;;;;;;26.00;16.67;;;5.30;99.90;;;;;;5071254;28;20209;-70
2021/05/01 04:17:06;;;;;;;26.43;17.40;;;5.40;99.90;;;;;;5071237;28;20305;-71
2021/05/01 04:19:33;;;;;;;27.60;18.20;;;5.40;99.90;;;;;;5072163;28;20198;-71
2021/05/01 04:22:04;;;;;;;27.90;19.07;;;5.50;99.90;;;;;;5071654;28;20214;-70
2021/05/01 04:24:31;;;;;;;30.63;19.17;;;5.60;99.90;;;;;;5072865;28;20233;-70
2021/05/01 04:26:57;;;;;;;29.90;20.13;;;5.70;99.90;;;;;;5071520;28;20224;-73
2021/05/01 04:29:24;;;;;;;28.13;18.70;;;5.70;99.90;;;;;;5072224;28;20210;-74
2021/05/01 04:31:51;;;;;;;32.53;19.77;;;5.80;99.90;;;;;;5072200;28;20195;-73
2021/05/01 04:34:18;;;;;;;30.93;20.73;;;6.00;99.90;;;;;;5072149;28;20202;-74
2021/05/01 04:36:44;;;;;;;31.33;20.53;;;6.10;99.90;;;;;;5072318;28;20554;-74
2021/05/01 04:39:11;;;;;;;32.60;20.70;;;6.50;99.90;;;;;;5071407;28;20198;-73
2021/05/01 04:41:37;;;;;;;31.70;21.57;;;6.80;99.90;;;;;;5071807;28;20224;-74
2021/05/01 04:44:04;;;;;;;24.10;16.77;;;7.20;99.90;;;;;;5073181;28;20206;-74
2021/05/01 04:46:30;;;;;;;24.17;16.30;;;7.20;99.90;;;;;;5072641;28;20196;-73
2021/05/01 04:48:57;;;;;;;24.97;16.67;;;7.30;99.90;;;;;;5072675;28;20207;-74
2021/05/01 04:51:24;;;;;;;24.00;16.00;;;7.20;99.90;;;;;;5072606;28;20213;-74
2021/05/01 04:53:50;;;;;;;25.83;17.37;;;7.00;99.90;;;;;;5073368;28;20212;-73
2021/05/01 04:56:16;;;;;;;25.23;17.23;;;6.90;99.90;;;;;;5072420;28;20213;-74
2021/05/01 04:58:43;;;;;;;27.70;19.13;;;7.10;99.90;;;;;;5059298;28;20206;-74
2021/05/01 05:01:09;;;;;;;28.00;19.00;;;7.00;99.90;;;;;;5072779;28;20218;-74
2021/05/01 05:03:35;;;;;;;29.17;19.60;;;7.10;99.90;;;;;;5072647;28;20290;-74
2021/05/01 05:06:03;;;;;;;28.60;19.40;;;7.10;99.90;;;;;;5070825;28;20210;-73
2021/05/01 05:08:29;;;;;;;26.20;17.97;;;7.20;99.90;;;;;;5071965;28;20198;-74
2021/05/01 05:10:55;;;;;;;27.87;18.77;;;7.50;99.90;;;;;;5072201;28;20209;-74
2021/05/01 05:13:25;;;;;;;28.63;18.83;;;7.70;99.90;;;;;;5070689;28;20206;-74
2021/05/01 05:15:52;;;;;;;28.07;19.57;;;7.70;99.90;;;;;;5072706;28;20202;-74
2021/05/01 05:18:18;;;;;;;29.40;20.30;;;7.50;99.90;;;;;;5071115;28;20206;-74
2021/05/01 05:20:45;;;;;;;29.00;20.00;;;7.60;99.90;;;;;;5073771;28;20199;-74
2021/05/01 05:23:12;;;;;;;29.40;20.93;;;7.60;99.90;;;;;;5072103;28;20202;-74
2021/05/01 05:25:38;;;;;;;33.50;22.93;;;7.60;99.90;;;;;;5069129;28;20214;-74
2021/05/01 05:28:05;;;;;;;32.10;21.60;;;7.60;99.90;;;;;;5060778;28;20214;-74
2021/05/01 05:30:31;;;;;;;33.07;23.37;;;7.80;99.90;;;;;;5071822;28;20225;-73
2021/05/01 05:32:58;;;;;;;34.23;24.03;;;7.80;99.90;;;;;;5071179;28;20202;-74
2021/05/01 05:35:24;;;;;;;32.77;23.20;;;7.90;99.90;;;;;;5072265;28;20210;-73
2021/05/01 05:37:50;;;;;;;33.60;23.43;;;8.50;99.90;;;;;;5070895;28;20202;-74
2021/05/01 05:40:18;;;;;;;33.00;23.77;;;9.20;99.90;;;;;;5053943;28;20195;-74
2021/05/01 05:42:47;;;;;;;32.63;21.73;;;9.00;99.90;;;;;;5068942;28;20684;-72
2021/05/01 05:45:22;;;;;;;31.67;22.87;;;9.20;99.90;;;;;;5071632;28;20621;-72
2021/05/01 05:47:48;;;;;;;32.00;21.77;;;9.00;99.90;;;;;;5069277;28;20194;-72
2021/05/01 05:50:14;;;;;;;31.37;21.90;;;9.40;99.90;;;;;;5069586;28;20214;-72
2021/05/01 05:52:41;;;;;;;31.07;22.67;;;9.50;99.90;;;;;;5071723;28;20199;-72
2021/05/01 05:55:08;;;;;;;31.60;21.90;;;9.30;99.90;;;;;;5066028;28;20203;-72
2021/05/01 05:57:36;;;;;;;31.23;22.13;;;9.30;99.90;;;;;;5064991;28;20259;-72
2021/05/01 06:00:04;;;;;;;31.27;22.63;;;10.40;99.90;;;;;;5069419;28;20232;-72
2021/05/01 06:02:32;;;;;;;31.07;22.60;;;10.50;99.90;;;;;;5069617;28;20218;-72
2021/05/01 06:05:03;;;;;;;31.57;22.47;;;10.10;99.90;;;;;;5068602;28;20198;-72
2021/05/01 06:07:33;;;;;;;30.43;21.90;;;9.90;99.90;;;;;;5070356;28;20578;-72
2021/05/01 06:10:04;;;;;;;30.90;21.80;;;9.80;99.90;;;;;;5067792;28;20202;-72
2021/05/01 06:12:32;;;;;;;30.03;21.40;;;10.10;99.90;;;;;;5071512;28;20202;-72
2021/05/01 06:15:03;;;;;;;28.30;20.77;;;10.40;99.90;;;;;;5071036;28;20616;-72
2021/05/01 06:17:30;;;;;;;29.93;22.47;;;10.50;99.90;;;;;;5069915;28;20206;-72
2021/05/01 06:19:58;;;;;;;27.60;20.47;;;10.90;99.90;;;;;;5071126;28;20198;-72
2021/05/01 06:22:25;;;;;;;28.60;20.40;;;10.90;99.90;;;;;;5071032;28;20594;-72
2021/05/01 06:24:52;;;;;;;29.50;21.03;;;10.70;99.90;;;;;;5071307;28;20206;-72
2021/05/01 06:27:21;;;;;;;28.23;21.47;;;10.80;99.90;;;;;;5055852;28;20662;-72
2021/05/01 06:29:47;;;;;;;27.33;20.67;;;10.90;99.90;;;;;;5067885;28;20350;-72
2021/05/01 06:32:15;;;;;;;27.40;19.63;;;10.80;99.90;;;;;;5067362;28;20205;-72
2021/05/01 06:34:46;;;;;;;26.77;18.73;;;10.80;99.90;;;;;;5066892;28;20228;-72
2021/05/01 06:37:15;;;;;;;27.90;18.77;;;10.90;99.90;;;;;;5067009;28;20208;-72
2021/05/01 06:39:42;;;;;;;26.70;18.57;;;10.80;99.90;;;;;;5061063;28;20297;-73
2021/05/01 06:42:12;;;;;;;24.77;18.33;;;10.70;99.90;;;;;;5067177;28;20676;-73
2021/05/01 06:44:42;;;;;;;26.40;18.07;;;10.60;99.90;;;;;;5067710;28;20299;-72
2021/05/01 06:47:10;;;;;;;24.97;18.33;;;10.80;99.90;;;;;;5064782;28;20199;-74
2021/05/01 06:49:46;;;;;;;25.20;17.70;;;10.90;99.90;;;;;;5065769;28;20549;-73
2021/05/01 06:52:15;;;;;;;25.37;18.70;;;10.80;99.90;;;;;;5067490;28;20600;-75
2021/05/01 06:54:44;;;;;;;25.73;18.23;;;11.00;99.90;;;;;;5067401;28;20214;-72
2021/05/01 06:57:11;;;;;;;24.93;18.50;;;11.40;99.90;;;;;;5066517;28;20202;-72
2021/05/01 06:59:38;;;;;;;24.57;17.17;;;11.70;99.90;;;;;;5065691;28;20698;-72
2021/05/01 07:02:04;;;;;;;24.50;17.53;;;11.80;99.90;;;;;;5070691;28;20230;-72
2021/05/01 07:04:30;;;;;;;22.07;15.97;;;11.60;99.90;;;;;;5064951;28;20210;-71
2021/05/01 07:06:58;;;;;;;22.10;15.93;;;11.70;99.90;;;;;;5066198;28;20497;-72
2021/05/01 07:09:24;;;;;;;23.80;16.60;;;12.50;99.90;;;;;;5064822;28;20217;-71
2021/05/01 07:11:52;;;;;;;22.97;16.50;;;12.90;99.90;;;;;;5067283;28;20466;-71
2021/05/01 07:14:20;;;;;;;22.67;15.57;;;12.60;99.90;;;;;;5067052;28;20198;-70
2021/05/01 07:16:48;;;;;;;22.83;15.37;;;12.40;99.90;;;;;;5070285;28;20678;-71
2021/05/01 07:19:16;;;;;;;22.80;16.23;;;12.50;99.90;;;;;;5068144;28;20212;-70
2021/05/01 07:21:42;;;;;;;22.17;14.70;;;12.40;99.90;;;;;;5070053;28;20579;-73
2021/05/01 07:24:10;;;;;;;22.73;15.80;;;12.70;99.90;;;;;;5068486;28;20217;-72
2021/05/01 07:26:39;;;;;;;21.97;15.77;;;12.70;99.90;;;;;;5069457;28;20214;-73
2021/05/01 07:29:08;;;;;;;22.03;15.97;;;12.60;99.90;;;;;;5067894;28;20236;-73
2021/05/01 07:31:40;;;;;;;22.33;16.00;;;12.40;99.90;;;;;;5073887;28;20202;-73
2021/05/01 07:34:12;;;;;;;22.30;15.40;;;13.00;99.90;;;;;;5075707;28;20199;-73
2021/05/01 07:36:42;;;;;;;21.60;15.40;;;13.30;99.90;;;;;;5073199;28;20210;-72
2021/05/01 07:39:12;;;;;;;21.37;14.80;;;13.20;99.90;;;;;;5077843;28;20624;-72
2021/05/01 07:41:41;;;;;;;21.63;15.97;;;13.20;99.90;;;;;;5064386;28;20217;-72
2021/05/01 07:44:08;;;;;;;21.50;15.37;;;13.30;99.90;;;;;;5069533;28;20204;-72
2021/05/01 07:46:37;;;;;;;21.93;15.77;;;13.30;99.90;;;;;;5072018;28;20198;-72
2021/05/01 07:49:05;;;;;;;22.77;15.93;;;13.40;99.90;;;;;;5071224;28;20566;-72
2021/05/01 07:51:34;;;;;;;21.93;15.03;;;13.20;99.90;;;;;;5071363;28;20620;-72
2021/05/01 07:54:01;;;;;;;21.87;15.97;;;13.50;99.90;;;;;;5072543;28;20199;-73
2021/05/01 07:56:28;;;;;;;20.57;14.90;;;13.30;99.90;;;;;;5072570;28;20202;-72
2021/05/01 07:58:55;;;;;;;21.93;15.43;;;13.20;99.90;;;;;;5072071;28;20206;-73
2021/05/01 08:01:22;;;;;;;21.80;15.57;;;13.10;99.90;;;;;;5072145;28;20697;-72
2021/05/01 08:03:48;;;;;;;21.43;15.07;;;13.40;99.90;;;;;;5072318;28;20252;-72
2021/05/01 08:06:15;;;;;;;21.40;15.67;;;13.70;99.90;;;;;;5072407;28;20214;-73
2021/05/01 08:08:41;;;;;;;21.70;16.43;;;13.60;99.90;;;;;;5071543;28;20198;-72
2021/05/01 08:11:07;;;;;;;22.87;16.20;;;13.60;99.90;;;;;;5071958;28;20202;-76
2021/05/01 08:13:35;;;;;;;23.93;16.17;;;13.70;99.90;;;;;;5072057;28;20199;-73
2021/05/01 08:16:01;;;;;;;22.23;15.70;;;13.50;99.90;;;;;;5072156;28;20225;-72
2021/05/01 08:18:27;;;;;;;22.57;15.50;;;13.10;99.90;;;;;;5070680;28;20207;-71
2021/05/01 08:20:54;;;;;;;21.93;15.93;;;13.70;99.90;;;;;;5073879;28;20202;-76
2021/05/01 08:23:20;;;;;;;23.30;16.80;;;13.80;99.90;;;;;;5074128;28;20684;-78
2021/05/01 08:25:46;;;;;;;22.07;15.60;;;14.20;99.90;;;;;;5068605;28;20652;-75
2021/05/01 08:28:13;;;;;;;23.00;16.00;;;14.30;99.90;;;;;;5072348;28;20640;-75
2021/05/01 08:30:40;;;;;;;24.20;16.93;;;14.00;99.90;;;;;;5074083;28;20202;-75
2021/05/01 08:33:06;;;;;;;21.80;16.40;;;14.00;99.90;;;;;;5073459;28;20205;-75
2021/05/01 08:35:32;;;;;;;25.13;16.70;;;14.20;99.90;;;;;;5072879;28;20210;-75
2021/05/01 08:37:59;;;;;;;23.40;17.47;;;14.40;99.90;;;;;;5072594;28;20497;-75
2021/05/01 08:40:26;;;;;;;22.70;16.90;;;14.70;99.90;;;;;;5071639;28;20210;-82
2021/05/01 08:42:53;;;;;;;22.60;16.43;;;14.60;99.90;;;;;;5071402;28;20265;-80
2021/05/01 08:45:24;;;;;;;22.80;16.50;;;15.00;99.90;;;;;;5074095;28;20709;-84
2021/05/01 08:47:51;;;;;;;21.20;16.60;;;14.80;99.90;;;;;;5075287;28;20210;-84
2021/05/01 08:50:33;;;;;;;24.53;17.53;;;14.30;99.90;;;;;;5076401;28;20204;-85
2021/05/01 08:53:01;;;;;;;22.10;16.33;;;13.60;99.90;;;;;;5068387;28;20255;-85
2021/05/01 08:55:29;;;;;;;24.23;17.57;;;13.90;99.90;;;;;;5076603;28;20730;-85
2021/05/01 08:57:57;;;;;;;21.57;16.00;;;14.00;99.90;;;;;;5075797;28;20200;-85
2021/05/01 09:00:23;;;;;;;24.17;16.90;;;14.50;99.90;;;;;;5074535;28;20215;-85
2021/05/01 09:02:55;;;;;;;22.83;15.93;;;14.50;99.90;;;;;;5075516;28;20499;-84
2021/05/01 09:05:25;;;;;;;23.57;16.93;;;15.20;99.90;;;;;;5083345;28;20229;-85
2021/05/01 09:07:52;;;;;;;21.17;15.93;;;15.50;99.90;;;;;;5073651;28;20563;-84
2021/05/01 09:10:18;;;;;;;22.47;17.17;;;16.00;99.90;;;;;;5068636;28;20205;-79
2021/05/01 09:12:46;;;;;;;22.77;15.13;;;16.10;99.90;;;;;;5060079;28;20203;-79
2021/05/01 09:15:47;;;;;;;22.87;16.17;;;16.70;99.90;;;;;;5072827;28;20198;-80
2021/05/01 09:18:16;;;;;;;19.83;14.48;;;17.00;99.90;;;;;;5073142;28;20209;-81
2021/05/01 09:20:42;;;;;;;20.27;14.93;;;16.50;99.90;;;;;;5070143;28;20199;-83
2021/05/01 09:23:09;;;;;;;21.58;15.45;;;15.90;99.90;;;;;;5069923;28;20222;-83
2021/05/01 09:25:48;;;;;;;20.83;15.00;;;15.70;99.90;;;;;;5067923;28;20202;-77
2021/05/01 09:28:16;;;;;;;19.80;14.50;;;15.50;99.90;;;;;;5067876;28;20695;-78
2021/05/01 09:30:57;;;;;;;21.13;14.75;;;15.30;99.90;;;;;;5068709;28;20202;-80
2021/05/01 09:33:27;;;;;;;20.43;14.93;;;15.20;99.90;;;;;;5071359;28;20213;-79
2021/05/01 09:36:01;;;;;;;21.03;14.43;;;14.50;99.90;;;;;;5069495;28;20205;-72
2021/05/01 09:38:37;;;;;;;22.30;15.40;;;14.40;99.90;;;;;;5067551;28;20205;-69
2021/05/01 09:41:11;;;;;;;20.80;15.53;;;14.20;99.90;;;;;;5068631;28;20643;-70
2021/05/01 09:43:55;;;;;;;23.10;17.23;;;14.20;99.90;;;;;;5068330;28;20199;-72
2021/05/01 09:46:22;;;;;;;22.67;17.20;;;14.20;99.90;;;;;;5066320;28;20202;-72
2021/05/01 09:49:06;;;;;;;22.70;16.63;;;14.20;99.90;;;;;;5068970;28;20210;-76
2021/05/01 09:51:42;;;;;;;23.83;17.03;;;14.50;99.90;;;;;;5068960;28;20210;-72
2021/05/01 09:54:10;;;;;;;24.43;17.10;;;14.70;99.90;;;;;;5068338;28;20210;-71
2021/05/01 09:56:38;;;;;;;21.93;16.20;;;15.00;99.90;;;;;;5065557;28;20197;-76
2021/05/01 09:59:04;;;;;;;22.17;16.30;;;14.90;99.90;;;;;;5069159;28;20571;-72
2021/05/01 10:01:31;;;;;;;23.50;17.27;;;15.20;99.90;;;;;;5062079;28;20229;-72
2021/05/01 10:04:15;;;;;;;23.07;16.93;;;15.20;99.90;;;;;;5070873;28;20206;-72
2021/05/01 10:06:46;;;;;;;25.70;17.90;;;15.10;99.90;;;;;;5064884;28;20615;-75
2021/05/01 10:09:20;;;;;;;24.33;17.83;;;15.20;99.90;;;;;;5069620;28;20663;-75
2021/05/01 10:11:47;;;;;;;24.73;17.47;;;15.40;99.90;;;;;;5071776;28;20538;-76
2021/05/01 10:14:16;;;;;;;25.60;17.90;;;16.00;99.90;;;;;;5070734;28;20632;-77
2021/05/01 10:16:54;;;;;;;23.03;16.63;;;16.30;99.90;;;;;;5071373;28;20674;-73
2021/05/01 10:19:21;;;;;;;25.30;16.80;;;16.60;99.90;;;;;;5070571;28;20205;-72
2021/05/01 10:21:48;;;;;;;22.85;16.88;;;16.80;99.90;;;;;;5071419;28;20218;-73
2021/05/01 10:24:15;;;;;;;22.10;16.33;;;17.00;99.90;;;;;;5066493;28;20209;-74
2021/05/01 10:26:47;;;;;;;22.60;17.05;;;17.30;99.90;;;;;;5067318;28;20215;-77
2021/05/01 10:29:27;;;;;;;23.08;16.33;;;17.60;99.90;;;;;;5065754;28;20501;-76
2021/05/01 10:31:55;;;;;;;21.98;16.70;;;16.80;99.90;;;;;;5066945;28;20198;-75
2021/05/01 10:34:24;;;;;;;21.80;16.33;;;16.90;99.90;;;;;;5067494;28;20248;-73
2021/05/01 10:36:53;;;;;;;22.42;16.40;;;16.50;99.90;;;;;;5058824;28;20202;-75
2021/05/01 10:39:20;;;;;;;23.08;17.02;;;16.10;99.90;;;;;;5065758;28;20229;-76
2021/05/01 10:41:55;;;;;;;22.90;17.73;;;15.90;99.90;;;;;;5059255;28;20317;-74
2021/05/01 10:44:22;;;;;;;27.33;19.27;;;15.50;99.90;;;;;;5064860;28;20288;-73
2021/05/01 10:46:48;;;;;;;26.60;20.60;;;15.20;99.90;;;;;;5067210;28;20213;-70
2021/05/01 10:49:15;;;;;;;29.07;21.87;;;15.00;99.90;;;;;;5057438;28;20206;-73
2021/05/01 10:51:44;;;;;;;27.03;20.50;;;14.80;99.90;;;;;;5067154;28;20202;-71
2021/05/01 10:54:12;;;;;;;30.50;22.60;;;14.80;99.90;;;;;;5066645;28;20210;-71
2021/05/01 10:56:43;;;;;;;29.33;22.53;;;14.50;99.90;;;;;;5066612;28;20210;-71
2021/05/01 10:59:11;;;;;;;29.10;21.50;;;14.40;99.90;;;;;;5065820;28;20217;-72
2021/05/01 11:01:46;;;;;;;28.43;21.60;;;14.30;99.90;;;;;;5067273;28;20691;-71
2021/05/01 11:04:16;;;;;;;29.57;22.40;;;14.20;99.90;;;;;;5062854;28;20202;-71
2021/05/01 11:06:47;;;;;;;27.57;21.50;;;14.90;99.90;;;;;;5063973;28;20569;-73
2021/05/01 11:09:23;;;;;;;30.60;23.27;;;15.20;99.90;;;;;;5065823;28;20210;-74
2021/05/01 11:11:55;;;;;;;29.43;21.10;;;15.20;99.90;;;;;;5064177;28;20677;-70
2021/05/01 11:14:23;;;;;;;28.17;22.37;;;15.30;99.90;;;;;;5060148;28;20221;-72
2021/05/01 11:16:52;;;;;;;28.43;21.60;;;15.30;99.90;;;;;;5056812;28;20506;-71
2021/05/01 11:19:23;;;;;;;27.00;21.53;;;15.00;99.90;;;;;;5062594;28;20301;-71
2021/05/01 11:21:50;;;;;;;27.80;20.50;;;15.00;99.90;;;;;;5059541;28;20258;-72
2021/05/01 11:24:17;;;;;;;29.93;22.70;;;15.00;99.90;;;;;;5065698;28;20587;-70
2021/05/01 11:26:46;;;;;;;27.63;21.20;;;14.20;99.90;;;;;;5063984;28;20210;-68
2021/05/01 11:29:13;;;;;;;28.87;21.77;;;14.50;99.90;;;;;;5066218;28;20676;-69
2021/05/01 11:31:41;;;;;;;31.43;21.97;;;14.50;99.90;;;;;;5066503;28;20206;-69
2021/05/01 11:34:10;;;;;;;29.70;20.37;;;14.40;99.90;;;;;;5066656;28;20210;-69
2021/05/01 11:36:46;;;;;;;30.07;21.90;;;14.60;99.90;;;;;;5053003;28;20207;-70
2021/05/01 11:39:14;;;;;;;28.70;20.70;;;14.50;99.90;;;;;;5061362;28;20272;-70
2021/05/01 11:41:43;;;;;;;31.20;22.70;;;14.50;99.90;;;;;;5061249;28;20229;-71
2021/05/01 11:44:11;;;;;;;30.77;22.27;;;14.30;99.90;;;;;;5066095;28;20276;-69
2021/05/01 11:46:43;;;;;;;32.27;23.30;;;14.30;99.90;;;;;;5067992;28;20719;-70
2021/05/01 11:49:10;;;;;;;32.13;22.47;;;14.10;99.90;;;;;;5068076;28;20213;-74
2021/05/01 11:51:53;;;;;;;28.03;21.70;;;14.00;99.90;;;;;;5067270;28;20659;-70
2021/05/01 11:54:34;;;;;;;30.63;22.53;;;13.90;99.90;;;;;;5068529;28;20213;-70
2021/05/01 11:57:07;;;;;;;31.37;22.70;;;14.10;99.90;;;;;;5067159;28;20214;-70
2021/05/01 11:59:43;;;;;;;29.30;22.43;;;14.20;99.90;;;;;;5062085;28;20210;-71
2021/05/01 12:02:11;;;;;;;32.13;22.83;;;14.10;99.90;;;;;;5068340;28;20499;-70
2021/05/01 12:04:51;;;;;;;31.90;22.80;;;14.10;99.90;;;;;;5067346;28;20217;-70
2021/05/01 12:07:24;;;;;;;30.63;23.90;;;14.20;99.90;;;;;;5066690;28;20267;-71
2021/05/01 12:09:53;;;;;;;30.73;23.00;;;14.20;99.90;;;;;;5067750;28;20679;-72
2021/05/01 12:12:21;;;;;;;29.80;22.40;;;14.30;99.90;;;;;;5067138;28;20202;-72
2021/05/01 12:14:48;;;;;;;29.57;22.77;;;14.30;99.90;;;;;;5067487;28;20251;-70
2021/05/01 12:17:15;;;;;;;31.67;23.27;;;14.60;99.90;;;;;;5066155;28;20313;-70
2021/05/01 12:19:44;;;;;;;29.70;22.00;;;14.60;99.90;;;;;;5065470;28;20218;-70
2021/05/01 12:22:23;;;;;;;34.67;24.43;;;14.70;99.90;;;;;;5056316;28;20222;-70
2021/05/01 12:24:51;;;;;;;31.30;23.77;;;14.70;99.90;;;;;;5068040;28;20283;-70
2021/05/01 12:27:48;;;;;;;32.13;24.10;;;14.80;99.90;;;;;;5067214;28;20233;-70
2021/05/01 12:30:58;;;;;;;30.23;22.27;;;14.50;99.90;;;;;;5062916;28;20210;-69
2021/05/01 12:33:46;;;;;;;32.13;22.10;;;14.40;99.90;;;;;;5063778;28;20202;-70
2021/05/01 12:36:16;;;;;;;32.00;24.97;;;14.60;99.90;;;;;;5062639;28;20248;-70
2021/05/01 12:38:44;;;;;;;31.67;22.80;;;14.60;99.90;;;;;;5066550;28;20588;-72
2021/05/01 12:41:30;;;;;;;34.17;24.70;;;14.70;99.90;;;;;;5067101;28;20218;-73